Time;durP1;ratioP1;P1;durP2;ratioP2;P2;SDS_P1;SDS_P2;PMS_P1;PMS_P2;Temp;Humidity;BMP_temperature;BMP_pressure;BME280_temperature;BME280_humidity;BME280_pressure;Samples;Min_cycle;Max_cycle;Signal;HPM_P1;HPM_P2
2022/01/26 00:07:25;;;;;;;7.53;2.83;;;;;;;;;;4997939;28;20046;-65
2022/01/26 00:09:55;;;;;;;9.38;3.35;;;;;;;;;;4978610;28;20061;-65
2022/01/26 00:12:26;;;;;;;7.82;2.97;;;;;;;;;;4952915;28;20055;-65
2022/01/26 00:14:57;;;;;;;8.57;3.30;;;;;;;;;;4967544;28;20058;-65
2022/01/26 00:17:28;;;;;;;5.55;2.90;;;;;;;;;;5000437;28;20189;-65
2022/01/26 00:20:09;;;;;;;9.32;2.88;;;;;;;;;;5030931;28;20505;-65
2022/01/26 00:38:40;;;;;;;6.25;3.00;;;;;;;;;;4971855;28;20077;-65
2022/01/26 00:41:16;;;;;;;7.68;3.15;;;;;;;;;;4926842;28;20058;-65
2022/01/26 00:43:54;;;;;;;6.93;2.78;;;;;;;;;;4952016;28;20055;-64
2022/01/26 00:46:25;;;;;;;9.93;3.17;;;;;;;;;;4952071;28;20062;-65
2022/01/26 00:48:55;;;;;;;5.80;3.70;;;;;;;;;;4952710;28;20419;-65
2022/01/26 00:51:26;;;;;;;8.45;3.70;;;;;;;;;;4990527;28;20526;-65
2022/01/26 00:54:05;;;;;;;9.38;3.22;;;;;;;;;;4939211;28;20054;-66
2022/01/26 00:56:36;;;;;;;5.85;2.88;;;;;;;;;;4971152;28;20059;-65
2022/01/26 00:59:06;;;;;;;7.00;3.13;;;;;;;;;;4939789;28;20167;-65
2022/01/26 01:01:37;;;;;;;5.55;3.05;;;;;;;;;;4939238;28;20054;-65
2022/01/26 01:04:08;;;;;;;9.18;3.22;;;;;;;;;;4990792;28;20618;-65
2022/01/26 01:06:51;;;;;;;7.63;3.30;;;;;;;;;;5009305;28;20070;-65
2022/01/26 01:09:24;;;;;;;5.82;3.58;;;;;;;;;;5010419;28;20457;-65
2022/01/26 01:11:57;;;;;;;6.82;3.08;;;;;;;;;;4978201;28;20056;-65
2022/01/26 01:14:27;;;;;;;7.55;3.58;;;;;;;;;;4980061;28;20049;-64
2022/01/26 01:17:02;;;;;;;8.45;3.45;;;;;;;;;;5029756;28;20045;-64
2022/01/26 01:19:42;;;;;;;6.30;3.35;;;;;;;;;;4997010;28;20049;-64
2022/01/26 01:30:49;;;;;;;6.75;3.72;;;;;;;;;;5021110;28;20061;-65
2022/01/26 01:33:24;;;;;;;9.48;3.65;;;;;;;;;;5052992;28;20063;-65
2022/01/26 01:35:54;;;;;;;8.38;4.13;;;;;;;;;;5069591;28;20052;-64
2022/01/26 01:38:27;;;;;;;10.43;4.18;;;;;;;;;;5069416;28;20480;-64
2022/01/26 01:40:58;;;;;;;10.63;4.00;;;;;;;;;;5069313;28;20054;-65
2022/01/26 01:43:29;;;;;;;7.03;3.90;;;;;;;;;;5052375;28;20400;-65
2022/01/26 01:45:59;;;;;;;8.70;4.20;;;;;;;;;;5036425;28;20056;-65
2022/01/26 01:48:33;;;;;;;6.90;3.42;;;;;;;;;;5069106;28;20520;-65
2022/01/26 01:51:08;;;;;;;10.60;4.43;;;;;;;;;;5052598;28;20056;-65
2022/01/26 01:53:41;;;;;;;9.32;3.80;;;;;;;;;;5052452;28;20056;-65
2022/01/26 01:56:17;;;;;;;10.57;3.97;;;;;;;;;;5069048;28;20535;-64
2022/01/26 01:58:48;;;;;;;8.32;4.13;;;;;;;;;;5028484;28;20053;-65
2022/01/26 02:01:18;;;;;;;7.60;4.28;;;;;;;;;;5041585;28;20056;-65
2022/01/26 02:03:49;;;;;;;11.20;4.40;;;;;;;;;;5035247;28;20057;-65
2022/01/26 02:06:19;;;;;;;10.43;4.30;;;;;;;;;;5068805;28;20048;-65
2022/01/26 02:08:50;;;;;;;10.68;3.80;;;;;;;;;;5068918;28;20053;-65
2022/01/26 02:11:20;;;;;;;10.18;4.18;;;;;;;;;;5012482;28;20061;-65
2022/01/26 02:20:05;;;;;;;8.90;4.05;;;;;;;;;;4931207;29;20056;-65
2022/01/26 02:54:01;;;;;;;12.88;4.07;;;;;;;;;;4953170;28;20430;-64
2022/01/26 02:56:55;;;;;;;9.82;3.95;;;;;;;;;;4992795;28;20061;-65
2022/01/26 03:05:15;;;;;;;10.23;3.60;;;;;;;;;;4919455;29;20428;-67
2022/01/26 03:07:59;;;;;;;10.73;3.95;;;;;;;;;;4930584;29;20064;-67
2022/01/26 03:13:30;;;;;;;7.53;3.80;;;;;;;;;;4883144;29;20080;-64
2022/01/26 03:16:14;;;;;;;8.57;3.72;;;;;;;;;;4897112;29;20067;-66
2022/01/26 03:21:33;;;;;;;10.15;3.88;;;;;;;;;;4896630;29;20052;-65
2022/01/26 03:29:55;;;;;;;6.88;4.28;;;;;;;;;;4865458;29;20064;-65
2022/01/26 03:35:17;;;;;;;9.98;4.68;;;;;;;;;;4896516;29;20057;-66
2022/01/26 03:37:53;;;;;;;13.45;5.00;;;;;;;;;;4911633;29;20057;-65
2022/01/26 03:40:33;;;;;;;10.00;4.70;;;;;;;;;;4963341;28;20053;-65
2022/01/26 03:43:05;;;;;;;13.18;4.70;;;;;;;;;;5002942;28;20525;-66
2022/01/26 03:45:36;;;;;;;10.00;4.97;;;;;;;;;;4963635;28;20054;-65
2022/01/26 03:48:06;;;;;;;9.40;4.60;;;;;;;;;;4978969;28;20053;-65
2022/01/26 03:50:36;;;;;;;11.45;5.07;;;;;;;;;;4985649;28;20045;-64
2022/01/26 03:53:07;;;;;;;9.18;5.28;;;;;;;;;;5018117;28;20053;-64
2022/01/26 03:55:37;;;;;;;15.52;4.65;;;;;;;;;;5051343;28;20064;-66
2022/01/26 03:58:07;;;;;;;10.38;5.03;;;;;;;;;;5051089;28;20500;-64
2022/01/26 04:00:37;;;;;;;7.68;4.45;;;;;;;;;;5052896;28;20059;-64
2022/01/26 04:03:14;;;;;;;8.85;4.78;;;;;;;;;;5074651;28;20500;-65
2022/01/26 04:05:44;;;;;;;9.88;4.63;;;;;;;;;;5091445;28;20666;-65
2022/01/26 04:08:20;;;;;;;10.05;4.70;;;;;;;;;;5091359;28;20079;-65
2022/01/26 04:13:39;;;;;;;10.80;4.95;;;;;;;;;;5091143;28;20083;-65
2022/01/26 04:16:10;;;;;;;7.90;4.55;;;;;;;;;;5024218;28;20703;-65
2022/01/26 04:18:41;;;;;;;10.32;4.70;;;;;;;;;;5085680;28;20044;-64
2022/01/26 04:21:22;;;;;;;8.98;4.75;;;;;;;;;;5091136;28;20052;-65
2022/01/26 04:24:02;;;;;;;12.93;5.53;;;;;;;;;;5090139;28;20083;-68
2022/01/26 04:26:39;;;;;;;7.57;4.57;;;;;;;;;;5090278;28;20063;-64
2022/01/26 04:29:16;;;;;;;7.55;4.85;;;;;;;;;;5040950;28;20415;-65
2022/01/26 04:31:46;;;;;;;6.57;3.47;;;;;;;;;;5059573;28;20048;-64
2022/01/26 04:34:17;;;;;;;9.25;4.28;;;;;;;;;;5008375;28;20052;-66
2022/01/26 04:37:00;;;;;;;7.78;4.07;;;;;;;;;;5074018;28;20056;-65
2022/01/26 04:39:37;;;;;;;7.72;3.90;;;;;;;;;;5058055;28;20052;-64
2022/01/26 04:42:16;;;;;;;7.78;4.05;;;;;;;;;;5010298;28;20863;-65
2022/01/26 04:44:57;;;;;;;7.28;3.85;;;;;;;;;;4971421;28;20058;-65
2022/01/26 04:47:28;;;;;;;6.75;4.10;;;;;;;;;;4939374;28;20065;-63
2022/01/26 04:49:58;;;;;;;9.43;4.10;;;;;;;;;;4952093;29;20059;-67
2022/01/26 04:52:28;;;;;;;6.75;4.45;;;;;;;;;;4932582;29;20048;-65
2022/01/26 04:54:58;;;;;;;8.05;3.72;;;;;;;;;;4932908;29;20622;-64
2022/01/26 04:57:29;;;;;;;9.43;4.13;;;;;;;;;;4901582;29;20056;-65
2022/01/26 04:59:59;;;;;;;6.78;3.78;;;;;;;;;;4932987;29;20047;-65
2022/01/26 05:02:29;;;;;;;7.22;4.20;;;;;;;;;;4932825;29;20060;-65
2022/01/26 05:05:00;;;;;;;8.88;3.90;;;;;;;;;;4933215;29;20072;-65
2022/01/26 05:07:31;;;;;;;7.38;4.10;;;;;;;;;;4916991;29;20059;-64
2022/01/26 05:10:03;;;;;;;6.43;3.92;;;;;;;;;;4913657;29;20056;-64
2022/01/26 05:12:34;;;;;;;;;;;;;;;;;;4913895;29;20056;-66
2022/01/26 05:15:04;;;;;;;7.82;3.95;;;;;;;;;;4913735;29;21052;-64
2022/01/26 05:17:38;;;;;;;8.73;3.92;;;;;;;;;;4916866;29;20052;-65
2022/01/26 05:20:10;;;;;;;7.05;3.40;;;;;;;;;;4971160;28;20088;-65
2022/01/26 05:22:41;;;;;;;7.35;3.70;;;;;;;;;;5013537;28;20057;-64
2022/01/26 05:25:13;;;;;;;8.10;4.10;;;;;;;;;;5029924;28;20050;-65
2022/01/26 05:27:44;;;;;;;8.07;4.03;;;;;;;;;;4996603;28;20548;-65
2022/01/26 05:30:15;;;;;;;9.38;4.00;;;;;;;;;;5040575;28;20049;-65
2022/01/26 05:32:45;;;;;;;8.82;4.22;;;;;;;;;;5048557;28;20057;-65
2022/01/26 05:35:15;;;;;;;6.47;4.10;;;;;;;;;;4983510;28;20061;-65
2022/01/26 05:37:45;;;;;;;8.35;4.65;;;;;;;;;;5049325;28;20520;-65
2022/01/26 05:40:16;;;;;;;8.88;4.47;;;;;;;;;;5049248;28;20053;-65
2022/01/26 05:42:47;;;;;;;7.80;4.32;;;;;;;;;;5033092;28;20053;-65
2022/01/26 05:45:27;;;;;;;9.38;4.90;;;;;;;;;;5015923;28;20101;-65
2022/01/26 05:47:57;;;;;;;7.15;4.45;;;;;;;;;;5074023;28;20678;-65
2022/01/26 05:50:28;;;;;;;9.88;4.20;;;;;;;;;;5068787;28;20040;-65
2022/01/26 05:52:59;;;;;;;8.23;4.47;;;;;;;;;;5068938;28;20061;-65
2022/01/26 05:55:29;;;;;;;8.57;4.75;;;;;;;;;;5081600;28;20060;-64
2022/01/26 05:57:59;;;;;;;7.78;4.43;;;;;;;;;;5088986;28;20047;-65
2022/01/26 06:00:30;;;;;;;9.32;4.47;;;;;;;;;;5055467;28;20126;-65
2022/01/26 06:03:01;;;;;;;9.00;4.40;;;;;;;;;;5088956;28;20036;-64
2022/01/26 06:05:32;;;;;;;6.90;4.15;;;;;;;;;;5039066;28;20575;-65
2022/01/26 06:08:02;;;;;;;8.35;4.30;;;;;;;;;;5051880;28;20052;-64
2022/01/26 06:10:33;;;;;;;9.05;4.63;;;;;;;;;;5052424;28;20057;-65
2022/01/26 06:13:03;;;;;;;7.18;4.38;;;;;;;;;;5068672;28;20064;-65
2022/01/26 06:15:39;;;;;;;10.82;4.90;;;;;;;;;;5068680;28;20419;-65
2022/01/26 06:18:10;;;;;;;12.07;5.20;;;;;;;;;;5052387;28;20079;-64
2022/01/26 06:20:41;;;;;;;7.72;4.10;;;;;;;;;;4994500;28;20046;-64
2022/01/26 06:23:11;;;;;;;8.55;4.63;;;;;;;;;;5028702;28;20062;-65
2022/01/26 06:25:44;;;;;;;6.30;4.40;;;;;;;;;;5028451;28;20065;-65
2022/01/26 06:28:16;;;;;;;8.43;4.45;;;;;;;;;;5008363;28;20060;-65
2022/01/26 06:30:47;;;;;;;9.30;4.50;;;;;;;;;;5008741;28;20073;-67
2022/01/26 06:33:18;;;;;;;9.98;5.57;;;;;;;;;;5008627;28;20080;-65
2022/01/26 06:35:49;;;;;;;9.93;4.75;;;;;;;;;;5008718;28;20053;-64
2022/01/26 06:38:19;;;;;;;7.85;4.80;;;;;;;;;;5008426;28;20062;-65
2022/01/26 06:40:49;;;;;;;7.85;4.53;;;;;;;;;;5008817;28;20066;-64
2022/01/26 06:43:21;;;;;;;11.38;4.70;;;;;;;;;;4992308;28;20054;-65
2022/01/26 06:46:10;;;;;;;7.90;4.65;;;;;;;;;;4971422;28;20062;-65
2022/01/26 06:48:56;;;;;;;8.90;4.63;;;;;;;;;;5027757;28;20053;-65
2022/01/26 06:51:27;;;;;;;9.60;4.50;;;;;;;;;;5028261;28;20053;-65
2022/01/26 06:53:57;;;;;;;9.13;5.05;;;;;;;;;;5028150;28;20068;-65
2022/01/26 06:56:27;;;;;;;8.38;4.47;;;;;;;;;;5028255;28;20045;-65
2022/01/26 06:58:57;;;;;;;8.43;4.32;;;;;;;;;;5073718;28;20056;-64
2022/01/26 07:01:28;;;;;;;8.63;4.60;;;;;;;;;;5055624;28;20460;-65
2022/01/26 07:03:58;;;;;;;8.05;4.65;;;;;;;;;;5088278;28;20048;-65
2022/01/26 07:06:28;;;;;;;7.05;5.00;;;;;;;;;;5090075;28;20518;-65
2022/01/26 07:08:58;;;;;;;9.13;4.75;;;;;;;;;;5089683;28;20048;-65
2022/01/26 07:11:29;;;;;;;9.00;4.60;;;;;;;;;;5071800;28;20059;-65
2022/01/26 07:14:01;;;;;;;8.02;4.45;;;;;;;;;;5054998;28;20535;-65
2022/01/26 07:20:18;;;;;;;8.70;4.35;;;;;;;;;;5090743;28;20411;-64
2022/01/26 07:22:17;;;;;;;;;;;;;;;;;;5090135;28;20056;-65
2022/01/26 07:24:47;;;;;;;9.35;4.90;;;;;;;;;;5090604;28;19920;-65
2022/01/26 07:27:17;;;;;;;10.80;5.32;;;;;;;;;;5090168;28;20067;-64
2022/01/26 07:29:49;;;;;;;12.90;5.13;;;;;;;;;;5090526;28;20051;-65
2022/01/26 07:32:19;;;;;;;10.48;4.93;;;;;;;;;;5090297;28;20040;-64
2022/01/26 07:34:49;;;;;;;8.30;5.10;;;;;;;;;;5054894;28;20044;-65
2022/01/26 07:37:21;;;;;;;9.23;5.53;;;;;;;;;;5090369;28;20048;-65
2022/01/26 07:40:06;;;;;;;7.75;4.43;;;;;;;;;;5054756;28;20532;-66
2022/01/26 07:42:37;;;;;;;;;;;;;;;;;;5067906;28;20057;-65
2022/01/26 07:45:10;;;;;;;11.85;4.50;;;;;;;;;;5027633;28;19928;-65
2022/01/26 07:47:42;;;;;;;9.40;4.57;;;;;;;;;;4988160;28;20511;-64
2022/01/26 07:50:15;;;;;;;12.00;5.15;;;;;;;;;;4988394;28;20047;-63
2022/01/26 07:52:45;;;;;;;10.02;4.72;;;;;;;;;;4988148;28;20538;-65
2022/01/26 07:55:19;;;;;;;9.85;4.28;;;;;;;;;;4988256;28;20666;-63
2022/01/26 07:57:52;;;;;;;8.02;4.15;;;;;;;;;;4972402;28;20598;-65
2022/01/26 08:00:22;;;;;;;9.45;4.32;;;;;;;;;;4990997;28;20062;-64
2022/01/26 08:02:53;;;;;;;7.50;4.55;;;;;;;;;;4976143;28;20054;-65
2022/01/26 08:05:24;;;;;;;8.25;4.22;;;;;;;;;;4952873;28;20620;-64
2022/01/26 08:07:55;;;;;;;7.85;3.72;;;;;;;;;;4953076;28;20059;-64
2022/01/26 08:10:25;;;;;;;8.32;4.00;;;;;;;;;;4921107;28;20062;-65
2022/01/26 08:12:59;;;;;;;8.80;3.85;;;;;;;;;;4924504;28;20065;-64
2022/01/26 08:15:29;;;;;;;6.75;4.07;;;;;;;;;;4943803;28;20423;-64
2022/01/26 08:18:02;;;;;;;5.55;3.90;;;;;;;;;;4959168;28;20067;-65
2022/01/26 08:20:33;;;;;;;6.45;3.40;;;;;;;;;;4959331;28;20050;-64
2022/01/26 08:23:04;;;;;;;6.25;3.65;;;;;;;;;;4991510;28;20058;-65
2022/01/26 08:25:34;;;;;;;6.57;3.33;;;;;;;;;;5002879;28;20058;-64
2022/01/26 08:28:12;;;;;;;6.30;3.45;;;;;;;;;;4978399;28;20549;-64
2022/01/26 08:30:42;;;;;;;7.13;4.35;;;;;;;;;;5018772;28;20068;-64
2022/01/26 08:33:12;;;;;;;7.88;4.05;;;;;;;;;;5050808;28;20048;-65
2022/01/26 08:35:43;;;;;;;7.03;3.78;;;;;;;;;;5050600;28;20052;-64
2022/01/26 08:38:14;;;;;;;7.03;4.05;;;;;;;;;;5050632;28;20512;-64
2022/01/26 08:40:45;;;;;;;6.95;3.72;;;;;;;;;;5050118;28;20053;-64
2022/01/26 08:43:16;;;;;;;9.45;5.05;;;;;;;;;;5073817;28;20574;-64
2022/01/26 08:45:46;;;;;;;9.27;3.38;;;;;;;;;;5090620;28;20526;-65
2022/01/26 08:48:16;;;;;;;9.50;3.70;;;;;;;;;;5040348;28;20055;-65
2022/01/26 08:50:47;;;;;;;8.85;5.35;;;;;;;;;;5090639;28;20114;-65
2022/01/26 08:53:17;;;;;;;12.80;4.18;;;;;;;;;;5090865;28;20044;-65
2022/01/26 08:55:47;;;;;;;8.98;3.88;;;;;;;;;;5056814;28;20055;-65
2022/01/26 08:58:19;;;;;;;6.35;3.88;;;;;;;;;;5040266;28;20060;-65
2022/01/26 09:00:49;;;;;;;8.60;3.50;;;;;;;;;;5090318;28;20444;-64
2022/01/26 09:03:20;;;;;;;6.78;3.90;;;;;;;;;;5090213;28;20484;-64
2022/01/26 09:05:51;;;;;;;5.80;3.55;;;;;;;;;;5090358;28;20059;-64
2022/01/26 09:08:21;;;;;;;7.13;3.85;;;;;;;;;;5090080;28;20408;-65
2022/01/26 09:10:56;;;;;;;7.18;3.50;;;;;;;;;;5089290;28;20052;-65
2022/01/26 09:13:32;;;;;;;8.13;4.03;;;;;;;;;;5056318;28;20696;-65
2022/01/26 09:16:08;;;;;;;8.98;3.80;;;;;;;;;;5072709;28;20040;-64
2022/01/26 09:18:48;;;;;;;9.07;4.20;;;;;;;;;;5077787;28;20571;-65
2022/01/26 09:21:19;;;;;;;11.98;3.90;;;;;;;;;;5036884;28;20049;-65
2022/01/26 09:23:49;;;;;;;7.13;4.10;;;;;;;;;;5049482;28;20509;-65
2022/01/26 09:26:19;;;;;;;6.57;3.90;;;;;;;;;;4999888;28;20472;-65
2022/01/26 09:28:50;;;;;;;7.55;4.30;;;;;;;;;;5049578;28;20065;-65
2022/01/26 09:31:20;;;;;;;8.43;3.75;;;;;;;;;;5049602;28;20501;-65
2022/01/26 09:33:51;;;;;;;7.07;3.92;;;;;;;;;;5000311;28;20056;-65
2022/01/26 09:36:21;;;;;;;6.75;3.72;;;;;;;;;;5009307;28;20042;-64
2022/01/26 09:38:51;;;;;;;6.53;3.45;;;;;;;;;;4977065;28;20058;-65
2022/01/26 09:41:22;;;;;;;7.40;4.35;;;;;;;;;;4976846;28;20058;-65
2022/01/26 09:43:54;;;;;;;8.60;4.18;;;;;;;;;;5009664;28;20548;-65
2022/01/26 09:46:25;;;;;;;;;;;;;;;;;;5009859;28;20062;-65
2022/01/26 09:48:55;;;;;;;7.20;3.97;;;;;;;;;;4996259;28;19937;-65
2022/01/26 09:51:25;;;;;;;9.80;3.80;;;;;;;;;;4989760;28;20046;-64
2022/01/26 09:54:04;;;;;;;8.57;4.22;;;;;;;;;;5001495;28;20058;-65
2022/01/26 09:56:35;;;;;;;6.03;3.90;;;;;;;;;;5009407;28;20553;-64
2022/01/26 09:59:06;;;;;;;6.50;3.80;;;;;;;;;;5009548;28;20049;-65
2022/01/26 10:01:44;;;;;;;6.88;3.92;;;;;;;;;;5007918;28;20068;-64
2022/01/26 10:04:24;;;;;;;;;;;;;;;;;;4993499;28;20130;-65
2022/01/26 10:10:05;;;;;;;7.68;4.00;;;;;;;;;;5009353;28;20054;-64
2022/01/26 10:15:34;;;;;;;6.63;3.70;;;;;;;;;;5028463;28;20104;-64
2022/01/26 10:18:14;;;;;;;11.68;4.20;;;;;;;;;;5028882;28;20053;-65
2022/01/26 10:20:49;;;;;;;6.75;3.90;;;;;;;;;;4996524;28;20409;-64
2022/01/26 10:23:22;;;;;;;9.43;4.20;;;;;;;;;;4978853;28;20576;-65
2022/01/26 10:26:14;;;;;;;8.60;3.97;;;;;;;;;;5012595;28;20053;-65
2022/01/26 10:28:46;;;;;;;10.70;4.15;;;;;;;;;;5028567;28;20057;-64
2022/01/26 10:31:22;;;;;;;10.82;3.63;;;;;;;;;;5028745;28;20056;-64
2022/01/26 10:34:10;;;;;;;8.18;3.78;;;;;;;;;;4991808;28;20410;-65
2022/01/26 10:36:51;;;;;;;10.60;4.10;;;;;;;;;;5008635;28;20066;-64
2022/01/26 10:39:32;;;;;;;10.82;4.05;;;;;;;;;;5008590;28;20058;-65
2022/01/26 10:42:08;;;;;;;9.93;4.30;;;;;;;;;;5014487;28;20505;-65
2022/01/26 10:45:07;;;;;;;7.70;4.18;;;;;;;;;;4998973;28;20168;-64
2022/01/26 10:47:41;;;;;;;7.38;4.15;;;;;;;;;;5048166;28;20045;-65
2022/01/26 10:50:47;;;;;;;7.80;3.88;;;;;;;;;;5015238;28;20057;-65
2022/01/26 10:53:23;;;;;;;8.90;4.28;;;;;;;;;;5037244;28;20044;-65
2022/01/26 10:55:53;;;;;;;8.50;3.63;;;;;;;;;;5057258;28;20059;-65
2022/01/26 10:58:23;;;;;;;7.85;3.97;;;;;;;;;;5088496;28;20086;-65
2022/01/26 11:00:54;;;;;;;7.30;3.53;;;;;;;;;;5088101;28;20059;-65
2022/01/26 11:03:26;;;;;;;6.50;3.60;;;;;;;;;;5088319;28;20052;-66
2022/01/26 11:05:57;;;;;;;8.88;4.15;;;;;;;;;;5054417;28;20099;-64
2022/01/26 11:08:30;;;;;;;5.50;3.10;;;;;;;;;;5034586;28;20056;-65
2022/01/26 11:11:00;;;;;;;7.00;2.97;;;;;;;;;;5068095;28;20432;-66
2022/01/26 11:13:36;;;;;;;6.07;3.47;;;;;;;;;;5051729;28;20059;-66
2022/01/26 11:16:11;;;;;;;4.45;2.78;;;;;;;;;;5027522;28;20041;-65
2022/01/26 11:18:58;;;;;;;5.22;2.95;;;;;;;;;;4952679;28;20098;-66
2022/01/26 11:21:35;;;;;;;7.00;2.75;;;;;;;;;;4983283;28;20459;-66
2022/01/26 11:24:06;;;;;;;5.45;3.33;;;;;;;;;;4953311;28;20414;-67
2022/01/26 11:26:39;;;;;;;5.60;3.13;;;;;;;;;;4968872;28;20179;-66
2022/01/26 11:29:18;;;;;;;5.30;2.70;;;;;;;;;;4949781;29;20058;-65
2022/01/26 11:32:01;;;;;;;6.00;3.22;;;;;;;;;;4949947;29;20063;-66
2022/01/26 11:34:34;;;;;;;7.90;3.33;;;;;;;;;;4932198;29;20610;-66
2022/01/26 11:37:09;;;;;;;5.80;3.15;;;;;;;;;;4934370;29;20060;-66
2022/01/26 11:45:12;;;;;;;9.30;2.95;;;;;;;;;;4904332;29;20060;-66
2022/01/26 11:48:05;;;;;;;4.53;2.45;;;;;;;;;;4953312;29;20070;-66
2022/01/26 11:50:37;;;;;;;5.88;2.95;;;;;;;;;;4918414;29;20055;-67
2022/01/26 11:53:24;;;;;;;5.68;2.50;;;;;;;;;;4947685;28;20065;-65
2022/01/26 11:56:03;;;;;;;7.40;3.00;;;;;;;;;;4972561;28;20051;-66
2022/01/26 11:58:41;;;;;;;8.38;2.72;;;;;;;;;;4971682;28;20054;-66
2022/01/26 12:04:01;;;;;;;5.57;2.90;;;;;;;;;;4972442;28;20050;-67
2022/01/26 12:06:42;;;;;;;7.10;3.30;;;;;;;;;;4986791;28;20054;-66
2022/01/26 12:09:13;;;;;;;9.75;3.13;;;;;;;;;;5011479;28;20061;-66
2022/01/26 12:11:47;;;;;;;5.78;2.78;;;;;;;;;;5011290;28;20194;-66
2022/01/26 12:14:20;;;;;;;6.68;2.90;;;;;;;;;;5011471;28;20607;-67
2022/01/26 12:16:54;;;;;;;5.53;2.72;;;;;;;;;;5011255;28;20050;-66
2022/01/26 12:19:32;;;;;;;6.68;2.80;;;;;;;;;;5027290;28;20050;-66
2022/01/26 12:36:52;;;;;;;6.97;3.28;;;;;;;;;;5092470;28;20137;-66
2022/01/26 12:41:16;;;;;;;7.10;3.15;;;;;;;;;;5090424;28;20044;-66
2022/01/26 12:42:52;;;;;;;6.65;3.38;;;;;;;;;;5063618;28;20044;-67
2022/01/26 12:45:06;;;;;;;6.35;3.17;;;;;;;;;;5016455;28;20052;-67
2022/01/26 12:47:37;;;;;;;5.07;3.30;;;;;;;;;;5050347;28;20049;-67
2022/01/26 12:50:07;;;;;;;6.30;3.33;;;;;;;;;;5050461;28;20064;-69
2022/01/26 12:52:38;;;;;;;5.32;3.30;;;;;;;;;;5017924;28;20544;-66
2022/01/26 12:55:20;;;;;;;8.75;3.50;;;;;;;;;;5034034;28;20048;-67
2022/01/26 12:57:50;;;;;;;8.95;3.70;;;;;;;;;;5017745;28;20057;-68
2022/01/26 13:00:23;;;;;;;7.13;3.38;;;;;;;;;;5033132;28;20501;-68
2022/01/26 13:02:54;;;;;;;6.35;4.15;;;;;;;;;;5050027;28;20061;-67
2022/01/26 13:05:27;;;;;;;5.78;3.45;;;;;;;;;;5049944;28;20052;-66
2022/01/26 13:08:05;;;;;;;8.88;5.22;;;;;;;;;;5016900;28;20060;-67
2022/01/26 13:10:36;;;;;;;40.53;23.63;;;;;;;;;;5049790;28;20064;-66
2022/01/26 13:13:24;;;;;;;7.30;3.88;;;;;;;;;;5033669;28;20049;-65
2022/01/26 13:16:06;;;;;;;6.63;3.40;;;;;;;;;;5017345;28;20057;-67
2022/01/26 13:24:51;;;;;;;7.45;3.60;;;;;;;;;;5010041;28;20502;-70
2022/01/26 13:33:25;;;;;;;5.13;3.25;;;;;;;;;;4977732;28;20061;-67
2022/01/26 13:54:57;;;;;;;5.28;3.28;;;;;;;;;;4912811;29;20060;-67
2022/01/26 13:57:50;;;;;;;;;;;;;;;;;;4914523;29;20059;-72
2022/01/26 14:00:23;;;;;;;5.18;3.38;;;;;;;;;;4909241;28;19965;-69
2022/01/26 14:02:58;;;;;;;8.07;3.47;;;;;;;;;;4950670;28;20062;-67
2022/01/26 14:05:29;;;;;;;6.72;3.83;;;;;;;;;;4934935;29;20051;-74
2022/01/26 14:08:00;;;;;;;8.32;3.72;;;;;;;;;;4950741;28;20055;-69
2022/01/26 14:10:31;;;;;;;6.38;3.58;;;;;;;;;;4919837;28;20062;-74
2022/01/26 14:13:04;;;;;;;10.85;3.28;;;;;;;;;;4950658;28;20059;-75
2022/01/26 14:15:45;;;;;;;9.23;3.53;;;;;;;;;;4922430;28;20065;-70
2022/01/26 14:21:10;;;;;;;6.60;3.13;;;;;;;;;;4980058;28;20049;-73
2022/01/26 14:26:16;;;;;;;8.60;3.50;;;;;;;;;;5053302;28;20060;-72
2022/01/26 14:28:46;;;;;;;7.13;3.40;;;;;;;;;;5070293;28;20055;-69
2022/01/26 14:51:11;;;;;;;6.75;3.78;;;;;;;;;;5027893;28;20064;-70
2022/01/26 15:00:06;;;;;;;9.15;3.55;;;;;;;;;;5008049;28;20062;-67
2022/01/26 15:22:50;;;;;;;8.68;3.85;;;;;;;;;;4992361;28;20054;-69
2022/01/26 15:42:10;;;;;;;6.13;3.88;;;;;;;;;;5017733;28;20053;-68
2022/01/26 15:58:34;;;;;;;6.60;3.05;;;;;;;;;;5031427;28;20785;-65
2022/01/26 18:51:03;;;;;;;8.02;4.00;;;;;;;;;;5034935;28;20512;-71
2022/01/26 18:53:33;;;;;;;5.30;4.13;;;;;;;;;;5068265;28;20049;-74
2022/01/26 18:56:04;;;;;;;4.75;3.72;;;;;;;;;;5052788;28;20056;-68
2022/01/26 18:58:35;;;;;;;6.72;3.88;;;;;;;;;;5055342;28;20055;-72
2022/01/26 19:01:05;;;;;;;7.32;4.00;;;;;;;;;;5088405;28;20187;-69
2022/01/26 19:03:36;;;;;;;8.15;4.28;;;;;;;;;;5088418;28;20048;-70
2022/01/26 19:06:07;;;;;;;6.15;4.32;;;;;;;;;;5071862;28;20048;-70
2022/01/26 19:08:40;;;;;;;5.40;3.70;;;;;;;;;;5088678;28;20056;-71
2022/01/26 19:11:11;;;;;;;9.43;4.55;;;;;;;;;;5071839;28;20056;-74
2022/01/26 19:13:45;;;;;;;10.68;5.03;;;;;;;;;;5088845;28;20404;-73
2022/01/26 19:19:07;;;;;;;7.47;4.22;;;;;;;;;;5090557;28;20051;-74
2022/01/26 19:21:52;;;;;;;7.35;3.83;;;;;;;;;;5090414;28;20040;-73
2022/01/26 19:24:50;;;;;;;5.97;4.10;;;;;;;;;;5090326;28;20055;-71
2022/01/26 19:27:28;;;;;;;5.45;3.90;;;;;;;;;;5088030;28;20064;-70
2022/01/26 19:51:33;;;;;;;10.35;4.25;;;;;;;;;;5037792;28;20503;-70
2022/01/26 19:54:03;;;;;;;10.27;4.40;;;;;;;;;;5087975;28;20052;-65
2022/01/26 19:56:33;;;;;;;5.93;4.22;;;;;;;;;;5074918;28;20059;-68
2022/01/26 19:59:03;;;;;;;10.07;4.20;;;;;;;;;;5050566;28;20041;-73
2022/01/26 20:01:34;;;;;;;6.80;4.15;;;;;;;;;;5031047;28;20053;-73
2022/01/26 20:04:05;;;;;;;5.50;4.03;;;;;;;;;;5031308;28;20084;-74
2022/01/26 20:06:36;;;;;;;7.65;4.32;;;;;;;;;;5031242;28;20057;-72
2022/01/26 20:09:26;;;;;;;8.23;4.18;;;;;;;;;;5031213;28;20548;-71
2022/01/26 20:12:00;;;;;;;6.43;4.20;;;;;;;;;;5063645;28;20060;-69
2022/01/26 20:14:36;;;;;;;5.35;3.92;;;;;;;;;;5015488;28;20057;-73
2022/01/26 20:17:08;;;;;;;8.73;4.05;;;;;;;;;;5011004;28;20060;-74
2022/01/26 20:19:38;;;;;;;6.88;4.13;;;;;;;;;;4995268;28;20061;-68
2022/01/26 20:22:09;;;;;;;5.82;3.63;;;;;;;;;;5011076;28;20072;-68
2022/01/26 20:24:40;;;;;;;4.95;3.63;;;;;;;;;;5011229;28;20065;-74
2022/01/26 20:27:10;;;;;;;5.57;3.40;;;;;;;;;;5011014;28;20066;-72
2022/01/26 20:29:45;;;;;;;5.63;3.90;;;;;;;;;;5010850;28;20054;-72
2022/01/26 20:32:16;;;;;;;10.55;3.67;;;;;;;;;;5011272;28;20073;-74
2022/01/26 20:34:49;;;;;;;5.20;4.00;;;;;;;;;;5010714;28;20065;-73
2022/01/26 20:37:20;;;;;;;7.32;3.42;;;;;;;;;;4991925;28;20524;-72
2022/01/26 20:39:52;;;;;;;5.78;3.72;;;;;;;;;;5081215;28;20547;-67
2022/01/26 20:42:23;;;;;;;4.90;3.42;;;;;;;;;;5033922;28;20045;-74
2022/01/26 20:44:54;;;;;;;4.72;3.35;;;;;;;;;;5010107;28;20494;-74
2022/01/26 20:47:24;;;;;;;5.20;3.22;;;;;;;;;;5010668;28;20509;-71
2022/01/26 20:49:54;;;;;;;7.43;3.40;;;;;;;;;;5010596;28;20569;-71
2022/01/26 20:52:25;;;;;;;6.07;3.17;;;;;;;;;;5010541;28;20057;-77
2022/01/26 20:54:59;;;;;;;5.15;3.42;;;;;;;;;;5021811;28;20700;-74
2022/01/26 20:57:30;;;;;;;4.50;3.38;;;;;;;;;;5014037;28;20053;-75
2022/01/26 21:00:00;;;;;;;9.20;3.63;;;;;;;;;;5030177;28;20057;-72
2022/01/26 21:02:30;;;;;;;6.03;3.60;;;;;;;;;;4962867;28;20050;-75
2022/01/26 21:05:02;;;;;;;6.00;3.25;;;;;;;;;;5010416;28;20061;-69
2022/01/26 21:07:33;;;;;;;6.30;3.35;;;;;;;;;;5009542;28;20062;-72
2022/01/26 21:10:08;;;;;;;6.97;4.07;;;;;;;;;;5010172;28;20051;-77
2022/01/26 21:12:39;;;;;;;5.95;3.22;;;;;;;;;;4994327;28;20588;-70
2022/01/26 21:15:11;;;;;;;6.50;3.63;;;;;;;;;;4977405;28;20050;-71
2022/01/26 21:17:42;;;;;;;5.10;3.42;;;;;;;;;;4990559;28;20066;-74
2022/01/26 21:20:15;;;;;;;6.25;3.47;;;;;;;;;;5001459;28;20065;-68
2022/01/26 21:22:46;;;;;;;6.38;3.47;;;;;;;;;;5021963;28;20061;-73
2022/01/26 21:25:17;;;;;;;7.20;3.70;;;;;;;;;;5029417;28;20037;-71
2022/01/26 21:27:47;;;;;;;8.10;3.75;;;;;;;;;;4955157;28;20065;-74
2022/01/26 21:30:19;;;;;;;8.57;3.83;;;;;;;;;;4971036;28;20058;-73
2022/01/26 21:32:50;;;;;;;7.60;3.60;;;;;;;;;;4970879;28;20062;-77
2022/01/26 21:35:22;;;;;;;5.88;3.58;;;;;;;;;;4923202;28;20046;-74
2022/01/26 21:37:53;;;;;;;6.32;5.03;;;;;;;;;;4970879;28;20411;-73
2022/01/26 21:40:23;;;;;;;6.32;3.75;;;;;;;;;;4935049;28;20065;-76
2022/01/26 21:42:53;;;;;;;7.10;3.78;;;;;;;;;;4990375;28;20062;-76
2022/01/26 21:45:25;;;;;;;5.20;3.22;;;;;;;;;;4911001;28;20428;-74
2022/01/26 21:47:59;;;;;;;7.95;3.60;;;;;;;;;;4990257;28;20050;-75
2022/01/26 21:50:30;;;;;;;4.40;3.03;;;;;;;;;;4989899;28;20413;-68
2022/01/26 21:53:01;;;;;;;7.30;3.80;;;;;;;;;;4957177;28;20063;-75
2022/01/26 21:55:31;;;;;;;8.55;3.90;;;;;;;;;;5025055;28;20493;-72
2022/01/26 21:58:01;;;;;;;5.93;3.70;;;;;;;;;;5049228;28;20068;-71
2022/01/26 22:00:32;;;;;;;5.20;3.60;;;;;;;;;;5048896;28;20052;-73
2022/01/26 22:03:05;;;;;;;7.47;4.07;;;;;;;;;;5049051;28;20056;-75
2022/01/26 22:05:37;;;;;;;7.47;4.22;;;;;;;;;;5074297;28;20389;-74
2022/01/26 22:08:08;;;;;;;6.30;3.17;;;;;;;;;;5091559;28;20404;-78
2022/01/26 22:10:39;;;;;;;6.90;3.90;;;;;;;;;;5090416;28;20737;-77
2022/01/26 22:13:10;;;;;;;7.78;3.88;;;;;;;;;;5091594;28;20043;-76
2022/01/26 22:15:41;;;;;;;8.10;3.85;;;;;;;;;;5091321;28;20490;-75
2022/01/26 22:18:11;;;;;;;7.20;4.00;;;;;;;;;;5091492;28;20408;-71
2022/01/26 22:20:41;;;;;;;6.30;3.85;;;;;;;;;;5091187;28;20048;-73
2022/01/26 22:23:13;;;;;;;5.80;3.63;;;;;;;;;;5039970;28;20063;-69
2022/01/26 22:25:43;;;;;;;6.28;3.70;;;;;;;;;;5055460;28;20063;-75
2022/01/26 22:28:16;;;;;;;7.88;4.03;;;;;;;;;;5055478;28;20067;-75
2022/01/26 22:30:47;;;;;;;7.78;3.78;;;;;;;;;;5091114;28;20055;-76